createdAt,value
2019-04-05T00:01:27.590Z,43.20
2019-04-05T00:03:59.365Z,42.33
2019-04-05T00:06:31.098Z,41.37
2019-04-05T00:09:04.603Z,38.53
2019-04-05T00:11:36.497Z,49.80
2019-04-05T00:14:08.428Z,41.13
2019-04-05T00:16:40.236Z,40.70
2019-04-05T00:19:11.965Z,36.20
2019-04-05T00:21:43.673Z,36.53
2019-04-05T00:24:15.439Z,40.47
2019-04-05T00:26:47.229Z,36.37
2019-04-05T00:29:18.999Z,38.37
2019-04-05T00:31:50.781Z,39.13
2019-04-05T00:34:22.451Z,35.47
2019-04-05T00:36:54.164Z,40.87
2019-04-05T00:39:25.966Z,38.13
2019-04-05T00:41:57.678Z,39.77
2019-04-05T00:44:29.509Z,39.33
2019-04-05T00:47:01.292Z,33.97
2019-04-05T00:49:33.012Z,31.77
2019-04-05T00:52:05.132Z,36.27
2019-04-05T00:54:36.907Z,40.80
2019-04-05T00:57:08.554Z,46.50
2019-04-05T00:59:40.277Z,39.43
2019-04-05T01:02:12.058Z,34.80
2019-04-05T01:04:43.777Z,36.00
2019-04-05T01:07:15.487Z,34.37
2019-04-05T01:09:47.162Z,35.27
2019-04-05T01:12:18.995Z,36.80
2019-04-05T01:14:50.727Z,39.37
2019-04-05T01:17:25.021Z,30.60
2019-04-05T01:19:56.434Z,34.03
2019-04-05T01:22:28.851Z,42.70
2019-04-05T01:25:03.641Z,33.73
2019-04-05T01:27:35.686Z,48.50
2019-04-05T01:30:08.050Z,42.07
2019-04-05T01:32:39.823Z,39.27
2019-04-05T01:35:11.632Z,44.57
2019-04-05T01:37:43.457Z,57.77
2019-04-05T01:40:15.082Z,39.03
2019-04-05T01:42:46.707Z,40.80
2019-04-05T01:45:18.409Z,29.50
2019-04-05T01:47:50.085Z,41.87
2019-04-05T01:50:21.802Z,35.47
2019-04-05T01:52:53.406Z,37.40
2019-04-05T01:55:25.121Z,39.70
2019-04-05T01:57:56.902Z,34.23
2019-04-05T02:00:28.703Z,37.73
2019-04-05T02:03:00.386Z,41.17
2019-04-05T02:05:32.099Z,28.07
2019-04-05T02:08:03.874Z,35.67
2019-04-05T02:10:35.781Z,42.80
2019-04-05T02:13:07.448Z,42.00
2019-04-05T02:15:39.208Z,31.67
2019-04-05T02:18:11.145Z,34.10
2019-04-05T02:20:44.054Z,39.60
2019-04-05T02:23:15.805Z,38.07
2019-04-05T02:25:47.527Z,40.23
2019-04-05T02:28:19.227Z,42.40
2019-04-05T02:30:51.006Z,45.27
2019-04-05T02:33:22.690Z,41.87
2019-04-05T02:35:54.316Z,35.37
2019-04-05T02:38:25.992Z,40.40
2019-04-05T02:40:58.836Z,35.87
2019-04-05T02:43:30.882Z,39.83
2019-04-05T02:46:02.887Z,34.90
2019-04-05T02:48:35.482Z,32.27
2019-04-05T02:51:07.448Z,32.23
2019-04-05T02:53:39.211Z,29.60
2019-04-05T02:56:11.142Z,42.67
2019-04-05T02:58:42.876Z,40.57
2019-04-05T03:01:14.682Z,35.90
2019-04-05T03:03:46.429Z,34.87
2019-04-05T03:06:18.104Z,36.03
2019-04-05T03:08:49.886Z,34.00
2019-04-05T03:11:21.496Z,31.53
2019-04-05T03:13:54.656Z,34.00
2019-04-05T03:16:40.030Z,35.30
2019-04-05T03:19:05.814Z,30.03
2019-04-05T03:21:39.203Z,31.43
2019-04-05T03:24:13.373Z,31.57
2019-04-05T03:26:50.548Z,37.47
2019-04-05T03:29:22.325Z,33.93
2019-04-05T03:31:54.216Z,35.87
2019-04-05T03:34:25.992Z,33.27
2019-04-05T03:36:57.714Z,36.47
2019-04-05T03:39:29.453Z,32.60
2019-04-05T03:42:01.180Z,34.47
2019-04-05T03:44:33.019Z,34.00
2019-04-05T03:47:04.946Z,35.03
2019-04-05T03:49:36.679Z,42.63
2019-04-05T03:52:08.419Z,40.00
2019-04-05T03:54:40.024Z,35.40
2019-04-05T03:57:11.778Z,36.17
2019-04-05T03:59:43.506Z,31.40
2019-04-05T04:02:15.357Z,31.53
2019-04-05T04:04:47.100Z,30.63
2019-04-05T04:07:18.959Z,34.67
2019-04-05T04:09:50.576Z,34.53
2019-04-05T04:12:22.271Z,32.77
2019-04-05T04:14:53.989Z,36.80
2019-04-05T04:17:25.631Z,30.10
2019-04-05T04:19:57.516Z,40.57
2019-04-05T04:22:29.725Z,34.87
2019-04-05T04:25:01.487Z,36.93
2019-04-05T04:27:33.280Z,32.73
2019-04-05T04:30:05.179Z,35.13
2019-04-05T04:32:36.959Z,29.80
2019-04-05T04:35:08.686Z,35.00
2019-04-05T04:37:40.474Z,33.07
2019-04-05T04:40:12.177Z,33.63
2019-04-05T04:42:43.960Z,34.07
2019-04-05T04:45:15.670Z,34.27
2019-04-05T04:47:47.462Z,32.27
2019-04-05T04:50:19.447Z,36.67
2019-04-05T04:52:51.248Z,32.63
2019-04-05T04:55:22.945Z,34.00
2019-04-05T04:57:54.753Z,32.47
2019-04-05T05:00:26.710Z,38.00
2019-04-05T05:02:58.516Z,57.23
2019-04-05T05:05:30.555Z,290.80
2019-04-05T05:08:03.196Z,192.57
2019-04-05T05:10:35.222Z,63.33
2019-04-05T05:13:06.842Z,42.37
2019-04-05T05:15:38.624Z,45.53
2019-04-05T05:18:10.432Z,44.30
2019-04-05T05:20:42.779Z,43.60
2019-04-05T05:23:14.646Z,44.23
2019-04-05T05:25:47.347Z,48.23
2019-04-05T05:28:19.126Z,47.17
2019-04-05T05:30:51.138Z,42.50
2019-04-05T05:33:22.857Z,55.67
2019-04-05T05:35:54.553Z,44.73
2019-04-05T05:38:26.219Z,48.60
2019-04-05T05:40:57.930Z,33.00
2019-04-05T05:43:29.611Z,33.20
2019-04-05T05:46:01.325Z,35.10
2019-04-05T05:48:33.113Z,36.90
2019-04-05T05:51:04.835Z,45.73
2019-04-05T05:53:36.557Z,37.23
2019-04-05T05:56:08.392Z,32.83
2019-04-05T05:58:40.100Z,31.20
2019-04-05T06:01:11.751Z,30.17
2019-04-05T06:03:43.472Z,31.73
2019-04-05T06:06:15.353Z,29.27
2019-04-05T06:08:47.040Z,30.43
2019-04-05T06:11:18.755Z,24.23
2019-04-05T06:13:50.548Z,30.13
2019-04-05T06:16:22.262Z,29.10
2019-04-05T06:18:53.887Z,25.60
2019-04-05T06:21:25.609Z,24.47
2019-04-05T06:23:57.321Z,20.47
2019-04-05T06:26:29.034Z,24.87
2019-04-05T06:29:00.759Z,22.87
2019-04-05T06:31:32.548Z,22.93
2019-04-05T06:34:04.236Z,22.90
2019-04-05T06:36:35.852Z,25.13
2019-04-05T06:39:08.731Z,24.93
2019-04-05T06:41:40.529Z,25.70
2019-04-05T06:44:12.260Z,23.70
2019-04-05T06:46:44.078Z,25.40
2019-04-05T06:49:15.751Z,24.80
2019-04-05T06:51:47.472Z,23.50
2019-04-05T06:54:19.188Z,21.40
2019-04-05T06:56:50.917Z,22.70
2019-04-05T06:59:22.589Z,22.10
2019-04-05T07:01:54.198Z,25.23
2019-04-05T07:04:25.966Z,24.83
2019-04-05T07:06:57.742Z,21.83
2019-04-05T07:09:29.419Z,23.37
2019-04-05T07:12:01.142Z,23.00
2019-04-05T07:14:32.942Z,24.23
2019-04-05T07:17:05.633Z,26.93
2019-04-05T07:19:38.430Z,23.63
2019-04-05T07:22:10.192Z,21.93
2019-04-05T07:24:41.987Z,20.17
2019-04-05T07:27:13.928Z,20.00
2019-04-05T07:29:45.731Z,21.43
2019-04-05T07:32:17.452Z,18.60
2019-04-05T07:34:49.879Z,19.37
2019-04-05T07:37:21.858Z,17.90
2019-04-05T07:39:53.560Z,18.70
2019-04-05T07:42:25.339Z,18.97
2019-04-05T07:45:01.646Z,18.73
2019-04-05T07:47:35.340Z,16.70
2019-04-05T07:50:07.875Z,19.40
2019-04-05T07:52:41.448Z,19.03
2019-04-05T07:55:13.962Z,17.87
2019-04-05T07:57:45.851Z,17.77
2019-04-05T08:00:43.302Z,18.83
2019-04-05T08:03:15.103Z,19.17
2019-04-05T08:05:46.878Z,17.23
2019-04-05T08:08:24.905Z,18.17
2019-04-05T08:10:59.034Z,17.90
2019-04-05T08:13:31.329Z,17.93
2019-04-05T08:16:03.329Z,16.33
2019-04-05T08:18:35.406Z,17.40
2019-04-05T08:21:07.332Z,17.53
2019-04-05T08:23:39.471Z,16.60
2019-04-05T08:26:13.061Z,17.70
2019-04-05T08:28:48.973Z,18.33
2019-04-05T08:31:21.171Z,18.63
2019-04-05T08:33:52.971Z,18.37
2019-04-05T08:36:24.730Z,16.83
2019-04-05T08:38:56.489Z,16.27
2019-04-05T08:41:28.227Z,16.23
2019-04-05T08:44:00.010Z,16.13
2019-04-05T08:46:31.728Z,16.57
2019-04-05T08:49:10.684Z,16.60
2019-04-05T08:51:37.087Z,16.43
2019-04-05T08:54:09.008Z,15.73
2019-04-05T08:56:40.719Z,15.97
2019-04-05T08:59:12.336Z,16.30
2019-04-05T09:01:44.173Z,15.63
2019-04-05T09:04:15.945Z,16.57
2019-04-05T09:06:47.738Z,14.23
2019-04-05T09:09:19.440Z,13.47
2019-04-05T09:11:51.142Z,14.90
2019-04-05T09:14:22.874Z,14.80
2019-04-05T09:16:54.642Z,59.73
2019-04-05T09:19:27.415Z,14.23
2019-04-05T09:21:59.126Z,13.77
2019-04-05T09:24:30.852Z,12.23
2019-04-05T09:27:02.912Z,12.87
2019-04-05T09:29:34.701Z,12.67
2019-04-05T09:32:06.413Z,12.27
2019-04-05T09:34:38.343Z,11.47
2019-04-05T09:37:10.115Z,13.13
2019-04-05T09:39:42.033Z,11.67
2019-04-05T09:42:13.805Z,15.23
2019-04-05T09:44:45.530Z,12.80
2019-04-05T09:47:17.243Z,12.67
2019-04-05T09:49:48.954Z,12.13
2019-04-05T09:52:20.629Z,13.83
2019-04-05T09:54:52.342Z,12.23
2019-04-05T09:57:24.123Z,13.67
2019-04-05T09:59:55.862Z,13.83
2019-04-05T10:02:27.592Z,12.40
2019-04-05T10:04:59.280Z,10.97
2019-04-05T10:07:30.982Z,11.17
2019-04-05T10:10:02.692Z,12.00
2019-04-05T10:12:34.589Z,13.03
2019-04-05T10:15:06.587Z,12.27
2019-04-05T10:17:38.378Z,12.13
2019-04-05T10:20:10.158Z,11.90
2019-04-05T10:22:42.850Z,16.83
2019-04-05T10:25:14.635Z,26.73
2019-04-05T10:27:46.400Z,23.60
2019-04-05T10:30:18.207Z,12.77
2019-04-05T10:32:50.100Z,11.15
2019-04-05T10:35:21.873Z,13.60
2019-04-05T10:37:53.677Z,12.93
2019-04-05T10:40:25.514Z,12.03
2019-04-05T10:42:57.334Z,15.75
2019-04-05T10:45:29.027Z,11.50
2019-04-05T10:48:00.818Z,12.60
2019-04-05T10:50:32.620Z,11.15
2019-04-05T10:53:04.316Z,9.63
2019-04-05T10:55:38.967Z,11.28
2019-04-05T10:58:10.838Z,10.38
2019-04-05T11:00:42.702Z,10.00
2019-04-05T11:03:14.478Z,10.60
2019-04-05T11:05:49.103Z,12.88
2019-04-05T11:08:19.552Z,9.58
2019-04-05T11:10:51.153Z,11.45
2019-04-05T11:13:23.931Z,11.33
2019-04-05T11:15:55.731Z,11.97
2019-04-05T11:18:27.419Z,9.90
2019-04-05T11:20:59.095Z,10.35
2019-04-05T11:23:30.718Z,10.63
2019-04-05T11:26:02.440Z,10.85
2019-04-05T11:28:34.369Z,11.10
2019-04-05T11:31:06.202Z,13.48
2019-04-05T11:33:37.977Z,14.13
2019-04-05T11:36:11.579Z,12.28
2019-04-05T11:38:43.485Z,11.68
2019-04-05T11:41:15.192Z,10.85
2019-04-05T11:43:46.985Z,12.03
2019-04-05T11:46:18.691Z,11.33
2019-04-05T11:48:51.364Z,9.90
2019-04-05T11:51:23.070Z,10.30
2019-04-05T11:53:54.785Z,12.50
2019-04-05T11:56:26.491Z,14.13
2019-04-05T11:58:58.269Z,11.33
2019-04-05T12:01:38.212Z,11.22
2019-04-05T12:04:10.589Z,9.75
2019-04-05T12:06:42.304Z,15.23
2019-04-05T12:09:14.099Z,10.65
2019-04-05T12:11:46.515Z,10.95
2019-04-05T12:14:29.649Z,10.90
2019-04-05T12:16:52.816Z,10.53
2019-04-05T12:19:24.611Z,10.98
2019-04-05T12:21:56.376Z,9.80
2019-04-05T12:24:28.161Z,15.93
2019-04-05T12:26:59.936Z,17.75
2019-04-05T12:29:31.717Z,9.70
2019-04-05T12:32:03.327Z,7.78
2019-04-05T12:34:35.136Z,9.13
2019-04-05T12:37:07.277Z,12.55
2019-04-05T12:39:39.264Z,9.53
2019-04-05T12:42:12.148Z,13.90
2019-04-05T12:44:45.590Z,11.22
2019-04-05T12:47:17.355Z,17.02
2019-04-05T12:49:49.076Z,9.43
2019-04-05T12:52:22.875Z,9.95
2019-04-05T12:54:54.946Z,8.30
2019-04-05T12:57:27.878Z,9.10
2019-04-05T13:00:00.144Z,8.60
2019-04-05T13:02:33.951Z,9.98
2019-04-05T13:05:06.444Z,16.35
2019-04-05T13:07:38.351Z,8.65
2019-04-05T13:10:10.335Z,8.70
2019-04-05T13:12:42.230Z,8.05
2019-04-05T13:15:17.113Z,8.88
2019-04-05T13:17:47.921Z,8.98
2019-04-05T13:20:20.149Z,9.25
2019-04-05T13:22:52.300Z,10.65
2019-04-05T13:25:24.208Z,10.95
2019-04-05T13:27:56.142Z,10.78
2019-04-05T13:30:28.109Z,8.63
2019-04-05T13:33:01.056Z,9.60
2019-04-05T13:35:33.645Z,10.78
2019-04-05T13:38:05.712Z,8.80
2019-04-05T13:40:38.040Z,17.15
2019-04-05T13:43:10.109Z,10.90
2019-04-05T13:45:43.055Z,20.48
2019-04-05T13:48:15.624Z,26.80
2019-04-05T13:50:51.348Z,29.10
2019-04-05T13:53:23.476Z,7.37
2019-04-05T13:55:55.352Z,6.92
2019-04-05T13:58:27.226Z,7.53
2019-04-05T14:00:58.943Z,9.15
2019-04-05T14:03:30.853Z,7.60
2019-04-05T14:06:02.724Z,15.98
2019-04-05T14:08:36.699Z,13.03
2019-04-05T14:11:08.361Z,15.28
2019-04-05T14:13:42.956Z,30.85
2019-04-05T14:16:17.877Z,14.60
2019-04-05T14:18:50.441Z,21.33
2019-04-05T14:21:22.536Z,15.48
2019-04-05T14:23:55.116Z,12.78
2019-04-05T14:26:27.389Z,13.05
2019-04-05T14:29:03.490Z,11.63
2019-04-05T14:31:34.320Z,15.30
2019-04-05T14:34:06.478Z,19.75
2019-04-05T14:36:38.495Z,19.12
2019-04-05T14:39:10.828Z,13.40
2019-04-05T14:41:42.803Z,15.58
2019-04-05T14:44:15.155Z,18.65
2019-04-05T14:46:48.360Z,11.30
2019-04-05T14:49:20.738Z,15.25
2019-04-05T14:51:56.340Z,11.85
2019-04-05T14:54:26.573Z,10.80
2019-04-05T14:57:02.435Z,10.32
2019-04-05T14:59:32.962Z,9.88
2019-04-05T15:02:05.140Z,13.72
2019-04-05T15:04:37.179Z,14.93
2019-04-05T15:07:08.956Z,13.65
2019-04-05T15:09:40.669Z,18.67
2019-04-05T15:12:12.553Z,17.67
2019-04-05T15:14:44.153Z,16.17
2019-04-05T15:17:15.879Z,12.35
2019-04-05T15:19:47.688Z,12.15
2019-04-05T15:22:19.683Z,16.30
2019-04-05T15:24:51.466Z,13.35
2019-04-05T15:27:23.837Z,11.75
2019-04-05T15:29:56.282Z,10.53
2019-04-05T15:32:28.232Z,12.23
2019-04-05T15:35:00.031Z,13.08
2019-04-05T15:37:32.616Z,14.65
2019-04-05T15:40:05.503Z,13.22
2019-04-05T15:42:37.856Z,15.15
2019-04-05T15:45:09.834Z,12.65
2019-04-05T15:47:42.174Z,14.55
2019-04-05T15:50:14.499Z,15.88
2019-04-05T15:52:46.870Z,16.32
2019-04-05T15:55:20.098Z,13.40
2019-04-05T15:57:52.938Z,12.07
2019-04-05T16:00:40.725Z,9.35
2019-04-05T16:03:12.798Z,16.25
2019-04-05T16:05:44.874Z,17.42
2019-04-05T16:08:18.163Z,16.87
2019-04-05T16:10:51.264Z,42.55
2019-04-05T16:13:24.620Z,15.03
2019-04-05T16:15:56.580Z,41.30
2019-04-05T16:18:28.364Z,57.05
2019-04-05T16:21:00.103Z,32.60
2019-04-05T16:23:31.929Z,38.23
2019-04-05T16:26:04.155Z,25.77
2019-04-05T16:28:36.827Z,26.25
2019-04-05T16:31:08.910Z,27.17
2019-04-05T16:33:40.834Z,30.62
2019-04-05T16:36:12.767Z,47.10
2019-04-05T16:38:44.456Z,41.83
2019-04-05T16:41:16.246Z,50.08
2019-04-05T16:43:47.916Z,41.60
2019-04-05T16:46:19.706Z,57.03
2019-04-05T16:48:52.152Z,49.17
2019-04-05T16:51:25.260Z,62.80
2019-04-05T16:54:00.639Z,74.10
2019-04-05T16:56:33.374Z,213.40
2019-04-05T16:59:05.144Z,130.07
2019-04-05T17:01:36.949Z,96.87
2019-04-05T17:04:09.456Z,126.60
2019-04-05T17:06:41.965Z,51.00
2019-04-05T17:09:13.659Z,41.00
2019-04-05T17:11:45.960Z,56.50
2019-04-05T17:14:17.762Z,46.63
2019-04-05T17:16:50.627Z,52.43
2019-04-05T17:19:23.416Z,43.93
2019-04-05T17:21:56.033Z,97.70
2019-04-05T17:24:28.419Z,113.57
2019-04-05T17:27:00.372Z,120.07
2019-04-05T17:29:32.352Z,97.13
2019-04-05T17:32:04.063Z,74.53
2019-04-05T17:34:35.892Z,98.03
2019-04-05T17:37:08.121Z,100.33
2019-04-05T17:39:40.232Z,82.87
2019-04-05T17:42:12.021Z,74.73
2019-04-05T17:44:43.794Z,87.47
2019-04-05T17:47:15.540Z,104.60
2019-04-05T17:49:47.340Z,90.20
2019-04-05T17:52:19.117Z,95.20
2019-04-05T17:54:51.827Z,79.60
2019-04-05T17:57:23.614Z,61.03
2019-04-05T17:59:55.429Z,60.03
2019-04-05T18:02:28.480Z,95.23
2019-04-05T18:05:00.294Z,101.47
2019-04-05T18:07:32.099Z,72.63
2019-04-05T18:10:03.904Z,63.30
2019-04-05T18:12:36.105Z,53.60
2019-04-05T18:15:08.309Z,58.47
2019-04-05T18:17:40.262Z,76.47
2019-04-05T18:20:12.053Z,63.57
2019-04-05T18:22:45.308Z,58.50
2019-04-05T18:25:20.143Z,48.00
2019-04-05T18:27:54.575Z,47.33
2019-04-05T18:30:26.917Z,45.33
2019-04-05T18:32:58.747Z,52.33
2019-04-05T18:35:33.478Z,51.37
2019-04-05T18:38:05.462Z,44.97
2019-04-05T18:40:40.333Z,37.97
2019-04-05T18:43:11.632Z,33.80
2019-04-05T18:45:43.356Z,35.07
2019-04-05T18:48:15.139Z,37.03
2019-04-05T18:50:48.553Z,32.70
2019-04-05T18:53:20.566Z,31.87
2019-04-05T18:55:52.985Z,45.47
2019-04-05T18:58:24.973Z,199.90
2019-04-05T19:00:58.429Z,325.23
2019-04-05T19:03:32.677Z,213.57
2019-04-05T19:06:04.934Z,121.30
2019-04-05T19:08:39.890Z,72.23
2019-04-05T19:11:10.591Z,45.77
2019-04-05T19:13:42.413Z,40.00
2019-04-05T19:16:14.205Z,44.70
2019-04-05T19:18:46.017Z,44.87
2019-04-05T19:21:17.817Z,33.53
2019-04-05T19:23:51.134Z,49.20
2019-04-05T19:26:23.179Z,47.60
2019-04-05T19:28:55.034Z,31.30
2019-04-05T19:49:23.534Z,48.70
2019-04-05T19:51:55.218Z,46.60
2019-04-05T19:54:27.022Z,37.97
2019-04-05T19:56:58.738Z,40.10
2019-04-05T19:59:30.521Z,33.37
2019-04-05T20:02:02.322Z,39.43
2019-04-05T20:04:34.120Z,56.83
2019-04-05T20:07:06.018Z,44.90
2019-04-05T20:09:37.808Z,43.77
2019-04-05T20:12:09.572Z,41.60
2019-04-05T20:14:42.284Z,36.87
2019-04-05T20:17:13.893Z,35.37
2019-04-05T20:19:45.779Z,34.90
2019-04-05T20:22:17.487Z,37.67
2019-04-05T20:24:49.198Z,33.63
2019-04-05T20:27:20.902Z,37.20
2019-04-05T20:29:52.640Z,40.70
2019-04-05T20:32:24.367Z,38.20
2019-04-05T20:34:56.041Z,40.27
2019-04-05T20:37:27.839Z,33.07
2019-04-05T20:39:59.622Z,30.53
2019-04-05T20:42:32.506Z,31.60
2019-04-05T20:45:04.270Z,31.43
2019-04-05T20:47:36.052Z,30.20
2019-04-05T20:50:08.312Z,28.93
2019-04-05T20:52:40.318Z,27.43
2019-04-05T20:55:12.005Z,34.23
2019-04-05T20:57:43.774Z,29.73
2019-04-05T21:00:17.552Z,30.73
2019-04-05T21:02:49.325Z,31.07
2019-04-05T21:05:25.591Z,32.50
2019-04-05T21:07:54.496Z,32.63
2019-04-05T21:10:26.291Z,33.40
2019-04-05T21:12:58.114Z,35.77
2019-04-05T21:15:29.806Z,30.43
2019-04-05T21:18:01.526Z,35.93
2019-04-05T21:20:33.302Z,33.93
2019-04-05T21:23:04.917Z,35.73
2019-04-05T21:25:37.317Z,34.03
2019-04-05T21:28:09.047Z,33.37
2019-04-05T21:30:40.825Z,32.17
2019-04-05T21:33:12.659Z,30.87
2019-04-05T21:35:46.016Z,33.90
2019-04-05T21:38:17.988Z,29.50
2019-04-05T21:40:49.710Z,30.43
2019-04-05T21:43:21.442Z,33.70
2019-04-05T21:45:53.161Z,32.17
2019-04-05T21:48:24.998Z,34.20
2019-04-05T21:50:56.780Z,49.53
2019-04-05T21:53:28.572Z,54.03
2019-04-05T21:56:00.366Z,30.10
2019-04-05T21:58:31.980Z,36.23
2019-04-05T22:01:05.838Z,33.97
2019-04-05T22:03:38.464Z,38.10
2019-04-05T22:06:10.399Z,34.70
2019-04-05T22:08:42.190Z,42.67
2019-04-05T22:11:13.896Z,44.57
2019-04-05T22:13:45.825Z,42.30
2019-04-05T22:16:17.609Z,33.30
2019-04-05T22:18:49.303Z,31.77
2019-04-05T22:21:21.089Z,34.37
2019-04-05T22:23:52.885Z,33.00
2019-04-05T22:26:24.503Z,32.97
2019-04-05T22:28:56.291Z,29.33
2019-04-05T22:31:28.090Z,29.53
2019-04-05T22:33:59.917Z,27.63
2019-04-05T22:36:31.839Z,28.27
2019-04-05T22:39:03.714Z,27.77
2019-04-05T22:41:37.299Z,38.63
2019-04-05T22:44:09.085Z,29.37
2019-04-05T22:46:40.870Z,41.87
2019-04-05T22:49:12.594Z,31.07
2019-04-05T22:51:44.420Z,37.83
2019-04-05T22:54:16.229Z,30.70
2019-04-05T22:56:48.025Z,29.87
2019-04-05T22:59:19.759Z,29.97
2019-04-05T23:01:51.555Z,35.77
2019-04-05T23:04:23.326Z,31.30
2019-04-05T23:06:55.128Z,28.63
2019-04-05T23:09:27.027Z,29.00
2019-04-05T23:11:58.917Z,30.67
2019-04-05T23:14:30.725Z,30.50
2019-04-05T23:17:02.458Z,28.43
2019-04-05T23:19:35.164Z,28.97
2019-04-05T23:22:07.366Z,30.17
2019-04-05T23:24:39.294Z,30.67
2019-04-05T23:27:11.017Z,30.33
2019-04-05T23:29:42.844Z,37.60
2019-04-05T23:32:15.664Z,44.67
2019-04-05T23:34:47.502Z,31.70
2019-04-05T23:37:19.221Z,32.47
2019-04-05T23:39:50.940Z,30.07
2019-04-05T23:42:22.728Z,29.20
2019-04-05T23:44:54.523Z,32.57
2019-04-05T23:47:26.252Z,31.93
2019-04-05T23:49:57.972Z,34.40
2019-04-05T23:52:30.090Z,30.47
2019-04-05T23:55:02.886Z,31.00
2019-04-05T23:57:34.683Z,30.93
